Time;durP1;ratioP1;P1;durP2;ratioP2;P2;SDS_P1;SDS_P2;PMS_P1;PMS_P2;Temp;Humidity;BMP_temperature;BMP_pressure;BME280_temperature;BME280_humidity;BME280_pressure;Samples;Min_cycle;Max_cycle;Signal;HPM_P1;HPM_P2
2024/02/27 00:00:48;;;;;;;20.02;12.65;;;5.60;99.90;;;;;;5007198;28;20029;-78
2024/02/27 00:03:14;;;;;;;21.30;12.30;;;5.60;99.90;;;;;;4992680;28;20019;-78
2024/02/27 00:05:39;;;;;;;22.35;13.13;;;5.60;99.90;;;;;;5006877;28;20034;-78
2024/02/27 00:08:07;;;;;;;20.77;13.65;;;5.60;99.90;;;;;;5006532;28;20528;-78
2024/02/27 00:10:33;;;;;;;20.80;12.82;;;5.60;99.90;;;;;;4989084;28;20050;-78
2024/02/27 00:12:59;;;;;;;24.55;13.63;;;5.50;99.90;;;;;;5006715;28;20032;-78
2024/02/27 00:15:25;;;;;;;21.08;12.90;;;5.50;99.90;;;;;;4974977;28;20398;-78
2024/02/27 00:17:51;;;;;;;23.88;13.68;;;5.50;99.90;;;;;;5006762;28;20022;-78
2024/02/27 00:20:16;;;;;;;22.95;14.15;;;5.50;99.90;;;;;;5006444;28;20471;-78
2024/02/27 00:22:42;;;;;;;23.30;13.25;;;5.40;99.90;;;;;;4992753;28;20510;-78
2024/02/27 00:25:08;;;;;;;24.13;13.77;;;5.50;99.90;;;;;;5006904;28;20018;-78
2024/02/27 00:27:33;;;;;;;25.23;13.25;;;5.40;99.90;;;;;;5006196;28;20026;-78
2024/02/27 00:29:59;;;;;;;23.70;13.52;;;5.40;99.90;;;;;;5009264;28;20059;-78
2024/02/27 00:32:25;;;;;;;20.23;12.82;;;5.40;99.90;;;;;;5006653;28;20042;-78
2024/02/27 00:34:50;;;;;;;20.15;12.48;;;5.40;99.90;;;;;;4993238;28;20406;-78
2024/02/27 00:37:16;;;;;;;20.77;13.27;;;5.40;99.90;;;;;;5006178;28;20053;-78
2024/02/27 00:39:42;;;;;;;23.75;13.80;;;5.40;99.90;;;;;;4988759;28;20033;-78
2024/02/27 00:42:07;;;;;;;22.48;13.85;;;5.40;99.90;;;;;;5005994;28;20025;-79
2024/02/27 00:44:33;;;;;;;21.50;13.18;;;5.40;99.90;;;;;;4985704;28;20056;-78
2024/02/27 00:46:59;;;;;;;21.90;13.35;;;5.40;99.90;;;;;;4995169;28;20377;-78
2024/02/27 00:49:24;;;;;;;23.70;14.60;;;5.40;99.90;;;;;;4992169;28;20080;-78
2024/02/27 00:51:50;;;;;;;22.60;13.88;;;5.40;99.90;;;;;;5000612;28;20031;-78
2024/02/27 00:54:16;;;;;;;19.23;12.82;;;5.40;99.90;;;;;;4980789;28;20032;-78
2024/02/27 00:56:41;;;;;;;22.83;12.55;;;5.30;99.90;;;;;;5008471;28;20021;-78
2024/02/27 00:59:07;;;;;;;21.25;12.80;;;5.30;99.90;;;;;;5012003;28;20486;-78
2024/02/27 01:01:33;;;;;;;24.20;13.73;;;5.40;99.90;;;;;;4993652;28;20045;-78
2024/02/27 01:03:58;;;;;;;22.17;13.57;;;5.30;99.90;;;;;;5009631;28;20065;-78
2024/02/27 01:06:24;;;;;;;20.55;12.88;;;5.30;99.90;;;;;;4992602;28;20157;-78
2024/02/27 01:08:49;;;;;;;22.88;14.00;;;5.30;99.90;;;;;;5003735;28;20539;-78
2024/02/27 01:11:15;;;;;;;20.95;12.50;;;5.20;99.90;;;;;;4998007;28;20411;-78
2024/02/27 01:13:41;;;;;;;22.20;13.40;;;5.20;99.90;;;;;;5003802;28;20041;-78
2024/02/27 01:16:06;;;;;;;21.73;13.27;;;5.20;99.90;;;;;;5000664;28;20014;-78
2024/02/27 01:18:32;;;;;;;22.92;13.13;;;5.20;99.90;;;;;;4991519;28;20030;-77
2024/02/27 01:21:00;;;;;;;22.58;13.05;;;5.20;99.90;;;;;;5010127;28;20025;-78
2024/02/27 01:23:25;;;;;;;23.05;13.27;;;5.20;99.90;;;;;;4998530;28;20427;-78
2024/02/27 01:25:51;;;;;;;24.17;13.55;;;5.20;99.90;;;;;;5006732;28;20057;-77
2024/02/27 01:28:17;;;;;;;22.60;14.27;;;5.20;99.90;;;;;;5012213;28;20073;-78
2024/02/27 01:30:42;;;;;;;23.95;13.73;;;5.20;99.90;;;;;;5000373;28;20784;-78
2024/02/27 01:33:08;;;;;;;22.58;13.60;;;5.20;99.90;;;;;;5010110;28;20649;-78
2024/02/27 01:35:33;;;;;;;22.02;13.52;;;5.20;99.90;;;;;;4979642;28;20031;-77
2024/02/27 01:37:59;;;;;;;23.45;13.95;;;5.20;99.90;;;;;;4990826;28;20026;-78
2024/02/27 01:40:25;;;;;;;22.48;13.35;;;5.20;99.90;;;;;;5009556;28;20061;-78
2024/02/27 01:42:50;;;;;;;22.23;13.80;;;5.20;99.90;;;;;;4995302;28;20598;-78
2024/02/27 01:45:23;;;;;;;24.65;13.60;;;5.20;99.90;;;;;;5008992;28;20025;-78
2024/02/27 01:47:52;;;;;;;22.75;13.35;;;5.20;99.90;;;;;;4995413;28;20089;-77
2024/02/27 01:50:19;;;;;;;22.63;13.50;;;5.20;99.90;;;;;;4991258;28;20092;-78
2024/02/27 01:52:45;;;;;;;23.95;14.15;;;5.20;99.90;;;;;;4991612;28;20112;-78
2024/02/27 01:55:12;;;;;;;25.17;14.65;;;5.20;99.90;;;;;;4978191;28;20065;-78
2024/02/27 01:57:39;;;;;;;23.08;13.10;;;5.20;99.90;;;;;;5008685;28;20022;-77
2024/02/27 02:00:09;;;;;;;24.88;13.63;;;5.10;99.90;;;;;;5008039;28;20018;-78
2024/02/27 02:02:38;;;;;;;24.00;13.45;;;5.10;99.90;;;;;;5004231;28;20029;-78
2024/02/27 02:05:07;;;;;;;24.85;14.43;;;5.10;99.90;;;;;;5009338;28;20097;-78
2024/02/27 02:07:34;;;;;;;23.70;14.18;;;5.10;99.90;;;;;;4982853;28;20019;-79
2024/02/27 02:10:00;;;;;;;25.92;15.27;;;5.10;99.90;;;;;;4990837;28;20052;-79
2024/02/27 02:12:26;;;;;;;24.38;14.32;;;5.00;99.90;;;;;;4983020;28;20117;-78
2024/02/27 02:14:52;;;;;;;23.42;13.02;;;5.00;99.90;;;;;;5002560;28;20025;-79
2024/02/27 02:17:18;;;;;;;27.10;13.90;;;5.00;99.90;;;;;;4990797;28;20022;-79
2024/02/27 02:19:43;;;;;;;24.83;14.15;;;5.00;99.90;;;;;;5008279;28;20092;-78
2024/02/27 02:22:09;;;;;;;25.48;14.25;;;5.00;99.90;;;;;;4991469;28;20018;-78
2024/02/27 02:24:36;;;;;;;26.10;14.13;;;4.90;99.90;;;;;;5002591;28;20125;-78
2024/02/27 02:27:02;;;;;;;26.52;14.65;;;4.90;99.90;;;;;;5003908;28;20030;-79
2024/02/27 02:29:28;;;;;;;22.90;13.43;;;4.90;99.90;;;;;;5012729;28;20084;-78
2024/02/27 02:31:54;;;;;;;28.27;14.80;;;4.90;99.90;;;;;;5008944;28;20022;-79
2024/02/27 02:34:20;;;;;;;24.05;13.82;;;4.90;99.90;;;;;;5008648;28;20527;-77
2024/02/27 02:36:46;;;;;;;26.85;14.57;;;4.90;99.90;;;;;;5009512;28;20018;-78
2024/02/27 02:39:11;;;;;;;27.20;13.73;;;4.80;99.90;;;;;;5008189;28;20084;-79
2024/02/27 02:41:37;;;;;;;24.55;13.70;;;4.80;99.90;;;;;;5008365;28;20028;-78
2024/02/27 02:44:03;;;;;;;23.80;13.25;;;4.80;99.90;;;;;;5008335;28;20502;-78
2024/02/27 02:46:29;;;;;;;26.15;14.38;;;4.80;99.90;;;;;;4976898;28;20529;-78
2024/02/27 02:49:00;;;;;;;23.65;13.65;;;4.80;99.90;;;;;;4990215;28;20026;-78
2024/02/27 02:51:28;;;;;;;24.35;13.80;;;4.70;99.90;;;;;;5005116;28;20031;-78
2024/02/27 02:53:54;;;;;;;25.08;13.20;;;4.70;99.90;;;;;;4997748;28;20099;-78
2024/02/27 02:56:20;;;;;;;23.88;12.85;;;4.70;99.90;;;;;;4989026;28;20030;-78
2024/02/27 02:58:45;;;;;;;23.27;12.00;;;4.70;99.90;;;;;;4998871;28;20391;-78
2024/02/27 03:01:11;;;;;;;24.85;12.82;;;4.70;99.90;;;;;;4981594;28;20023;-78
2024/02/27 03:03:37;;;;;;;21.42;11.52;;;4.60;99.90;;;;;;4984037;28;20026;-78
2024/02/27 03:06:04;;;;;;;19.92;11.95;;;4.60;99.90;;;;;;4999837;28;20022;-78
2024/02/27 03:08:30;;;;;;;23.75;13.20;;;4.60;99.90;;;;;;5007531;28;20021;-78
2024/02/27 03:10:57;;;;;;;24.35;13.80;;;4.60;99.90;;;;;;4998537;28;20051;-78
2024/02/27 03:13:22;;;;;;;24.90;13.13;;;4.60;99.90;;;;;;5003115;28;20033;-78
2024/02/27 03:15:48;;;;;;;24.30;13.60;;;4.60;99.90;;;;;;4986425;28;20565;-78
2024/02/27 03:18:14;;;;;;;21.65;12.50;;;4.60;99.90;;;;;;5007804;28;20538;-78
2024/02/27 03:20:39;;;;;;;22.85;12.73;;;4.50;99.90;;;;;;4989859;28;20021;-78
2024/02/27 03:23:05;;;;;;;22.23;11.45;;;4.50;99.90;;;;;;4998973;28;20039;-78
2024/02/27 03:25:30;;;;;;;25.23;13.65;;;4.60;99.90;;;;;;4983542;28;20029;-78
2024/02/27 03:27:56;;;;;;;22.23;12.32;;;4.50;99.90;;;;;;5001618;28;20550;-78
2024/02/27 03:30:22;;;;;;;21.45;12.27;;;4.50;99.90;;;;;;4999611;28;20040;-78
2024/02/27 03:32:47;;;;;;;27.17;13.02;;;4.50;99.90;;;;;;5007286;28;20022;-78
2024/02/27 03:35:13;;;;;;;26.55;12.77;;;4.50;99.90;;;;;;4989694;28;20037;-78
2024/02/27 03:37:39;;;;;;;25.63;13.10;;;4.40;99.90;;;;;;5007223;28;20026;-78
2024/02/27 03:40:07;;;;;;;19.10;11.85;;;4.40;99.90;;;;;;5007080;28;20081;-78
2024/02/27 03:42:34;;;;;;;22.92;12.45;;;4.40;99.90;;;;;;4993174;28;20106;-78
2024/02/27 03:45:00;;;;;;;23.65;11.70;;;4.40;99.90;;;;;;4993607;28;20026;-78
2024/02/27 03:47:26;;;;;;;23.55;12.77;;;4.40;99.90;;;;;;5006954;28;20026;-78
2024/02/27 03:49:52;;;;;;;19.75;11.55;;;4.40;99.90;;;;;;4993167;28;20069;-77
2024/02/27 03:52:18;;;;;;;26.02;13.15;;;4.40;99.90;;;;;;5007107;28;20030;-79
2024/02/27 03:54:43;;;;;;;21.50;11.60;;;4.40;99.90;;;;;;4992974;28;20054;-78
2024/02/27 03:57:10;;;;;;;24.55;12.23;;;4.40;99.90;;;;;;4999445;28;20029;-78
2024/02/27 03:59:35;;;;;;;22.13;12.10;;;4.30;99.90;;;;;;5000773;28;20037;-78
2024/02/27 04:02:01;;;;;;;27.08;13.25;;;4.30;99.90;;;;;;5001626;28;20391;-79
2024/02/27 04:04:27;;;;;;;22.73;12.85;;;4.30;99.90;;;;;;5006678;28;20030;-78
2024/02/27 04:06:53;;;;;;;23.65;13.23;;;4.30;99.90;;;;;;5006926;28;20404;-78
2024/02/27 04:09:19;;;;;;;27.35;14.07;;;4.30;99.90;;;;;;5006126;28;20502;-78
2024/02/27 04:11:44;;;;;;;26.05;13.32;;;4.30;99.90;;;;;;5004526;28;20045;-78
2024/02/27 04:14:10;;;;;;;22.35;12.85;;;4.30;99.90;;;;;;4994841;28;20044;-78
2024/02/27 04:16:36;;;;;;;27.02;14.68;;;4.30;99.90;;;;;;5006803;28;20104;-78
2024/02/27 04:19:01;;;;;;;26.85;13.48;;;4.30;99.90;;;;;;4992595;28;20030;-78
2024/02/27 04:21:27;;;;;;;25.30;13.00;;;4.30;99.90;;;;;;5006747;28;20411;-78
2024/02/27 04:23:52;;;;;;;25.67;13.52;;;4.20;99.90;;;;;;5006433;28;20458;-78
2024/02/27 04:26:18;;;;;;;26.23;12.93;;;4.20;99.90;;;;;;5009368;28;20022;-78
2024/02/27 04:28:44;;;;;;;20.30;12.70;;;4.20;99.90;;;;;;5010859;28;20029;-78
2024/02/27 04:31:09;;;;;;;26.20;12.55;;;4.20;99.90;;;;;;5006350;28;20822;-78
2024/02/27 04:33:35;;;;;;;25.48;14.00;;;4.20;99.90;;;;;;5005802;28;20076;-78
2024/02/27 04:36:01;;;;;;;24.27;12.80;;;4.20;99.90;;;;;;4986572;28;20058;-78
2024/02/27 04:38:26;;;;;;;27.05;14.13;;;4.20;99.90;;;;;;4994628;28;20025;-79
2024/02/27 04:40:52;;;;;;;25.88;13.40;;;4.20;99.90;;;;;;5006096;28;20563;-78
2024/02/27 04:43:18;;;;;;;23.77;13.50;;;4.20;99.90;;;;;;4999649;28;20028;-78
2024/02/27 04:45:44;;;;;;;25.35;13.20;;;4.20;99.90;;;;;;4981056;28;20561;-78
2024/02/27 04:48:10;;;;;;;26.00;13.85;;;4.10;99.90;;;;;;4984074;28;20054;-78
2024/02/27 04:50:36;;;;;;;23.55;12.50;;;4.10;99.90;;;;;;4996284;28;20030;-78
2024/02/27 04:53:02;;;;;;;27.10;13.88;;;4.10;99.90;;;;;;4988163;28;20033;-77
2024/02/27 04:55:29;;;;;;;25.60;13.73;;;4.10;99.90;;;;;;4983074;28;20052;-78
2024/02/27 04:57:55;;;;;;;24.88;13.38;;;4.10;99.90;;;;;;4983907;28;20026;-79
2024/02/27 05:00:21;;;;;;;24.08;14.07;;;4.10;99.90;;;;;;5005749;28;20505;-78
2024/02/27 05:02:47;;;;;;;23.27;12.70;;;4.10;99.90;;;;;;4994361;28;20418;-78
2024/02/27 05:05:13;;;;;;;27.75;14.93;;;4.10;99.90;;;;;;5004523;28;20117;-78
2024/02/27 05:07:38;;;;;;;25.70;13.35;;;4.10;99.90;;;;;;5006316;28;20113;-78
2024/02/27 05:10:04;;;;;;;24.67;13.75;;;4.10;99.90;;;;;;4991565;28;20052;-78
2024/02/27 05:12:30;;;;;;;25.67;14.10;;;4.10;99.90;;;;;;5006113;28;20029;-78
2024/02/27 05:14:55;;;;;;;28.70;15.13;;;4.10;99.90;;;;;;4991757;28;20543;-78
2024/02/27 05:17:21;;;;;;;29.40;14.63;;;4.10;99.90;;;;;;5005869;28;20470;-78
2024/02/27 05:19:47;;;;;;;28.15;14.27;;;4.10;99.90;;;;;;4988157;28;20028;-78
2024/02/27 05:22:12;;;;;;;24.77;13.38;;;4.10;99.90;;;;;;4989941;28;20046;-78
2024/02/27 05:24:39;;;;;;;26.25;13.77;;;4.00;99.90;;;;;;5010198;28;20064;-78
2024/02/27 05:27:05;;;;;;;25.48;14.00;;;4.00;99.90;;;;;;5010520;28;20037;-78
2024/02/27 05:29:32;;;;;;;26.67;13.88;;;4.00;99.90;;;;;;5005549;28;20021;-78
2024/02/27 05:32:01;;;;;;;27.58;13.27;;;4.00;99.90;;;;;;4988489;28;20454;-78
2024/02/27 05:34:27;;;;;;;27.92;14.13;;;4.00;99.90;;;;;;5004886;28;20022;-78
2024/02/27 05:36:53;;;;;;;24.92;12.80;;;4.00;99.90;;;;;;5005988;28;20029;-78
2024/02/27 05:39:18;;;;;;;28.23;13.73;;;4.00;99.90;;;;;;4991531;28;20495;-78
2024/02/27 05:41:44;;;;;;;26.17;13.55;;;4.00;99.90;;;;;;5005995;28;20030;-78
2024/02/27 05:44:10;;;;;;;25.90;13.60;;;3.90;99.90;;;;;;4987930;28;20038;-78
2024/02/27 05:46:35;;;;;;;28.88;12.48;;;3.90;99.90;;;;;;4994139;28;20418;-79
2024/02/27 05:49:01;;;;;;;25.35;13.43;;;3.90;99.90;;;;;;4991390;28;20410;-78
2024/02/27 05:51:27;;;;;;;23.90;13.00;;;3.90;99.90;;;;;;5006442;28;20407;-78
2024/02/27 05:53:53;;;;;;;26.30;13.27;;;3.90;99.90;;;;;;5001498;28;20116;-78
2024/02/27 05:56:21;;;;;;;25.13;13.10;;;3.90;99.90;;;;;;4982116;28;20472;-79
2024/02/27 05:58:47;;;;;;;28.83;13.75;;;3.90;99.90;;;;;;4984351;28;20643;-78
2024/02/27 06:01:14;;;;;;;25.05;13.75;;;3.90;99.90;;;;;;5002616;28;20041;-78
2024/02/27 06:03:40;;;;;;;25.10;13.23;;;3.90;99.90;;;;;;5008990;28;20026;-78
2024/02/27 06:06:07;;;;;;;26.25;13.05;;;3.90;99.90;;;;;;4997872;28;20031;-78
2024/02/27 06:08:32;;;;;;;27.88;13.45;;;3.90;99.90;;;;;;4988720;28;20030;-78
2024/02/27 06:10:58;;;;;;;26.42;13.07;;;3.90;99.90;;;;;;4999008;28;20140;-78
2024/02/27 06:13:23;;;;;;;24.92;12.77;;;3.90;99.90;;;;;;5004077;28;20022;-78
2024/02/27 06:15:49;;;;;;;25.10;13.98;;;3.90;99.90;;;;;;5008722;28;20105;-78
2024/02/27 06:18:15;;;;;;;29.05;13.90;;;3.90;99.90;;;;;;5001422;28;20546;-79
2024/02/27 06:23:31;;;;;;;25.25;12.50;;;3.90;99.90;;;;;;4998475;28;20041;-78
2024/02/27 06:25:57;;;;;;;26.00;13.60;;;3.80;99.90;;;;;;5005958;28;20486;-78
2024/02/27 06:28:23;;;;;;;25.55;13.52;;;3.80;99.90;;;;;;4999485;28;20037;-78
2024/02/27 06:30:49;;;;;;;23.63;12.90;;;3.80;99.90;;;;;;5004568;28;20026;-78
2024/02/27 06:33:15;;;;;;;25.45;13.18;;;3.80;99.90;;;;;;5001662;28;20523;-78
2024/02/27 06:35:41;;;;;;;26.95;13.52;;;3.80;99.90;;;;;;5001876;28;20481;-77
2024/02/27 06:38:06;;;;;;;27.10;14.20;;;3.80;99.90;;;;;;4990972;28;20018;-78
2024/02/27 06:40:32;;;;;;;26.75;12.68;;;3.80;99.90;;;;;;5007575;28;20061;-78
2024/02/27 06:42:58;;;;;;;23.92;12.70;;;3.80;99.90;;;;;;4977182;28;20061;-78
2024/02/27 06:45:23;;;;;;;22.50;12.27;;;3.80;99.90;;;;;;5007716;28;20061;-78
2024/02/27 06:47:49;;;;;;;26.00;13.35;;;3.80;99.90;;;;;;4990355;28;20483;-78
2024/02/27 06:50:16;;;;;;;26.00;13.25;;;3.80;99.90;;;;;;4990286;28;20653;-78
2024/02/27 06:52:42;;;;;;;23.73;12.48;;;3.80;99.90;;;;;;4993960;28;20076;-78
2024/02/27 06:55:08;;;;;;;31.63;13.35;;;3.80;99.90;;;;;;4985284;28;20034;-77
2024/02/27 06:57:34;;;;;;;23.75;11.93;;;3.90;99.90;;;;;;5007904;28;20153;-78
2024/02/27 07:00:00;;;;;;;28.35;13.70;;;3.90;99.90;;;;;;4994912;28;20065;-78
2024/02/27 07:02:26;;;;;;;19.55;11.60;;;3.90;99.90;;;;;;4979606;28;20117;-78
2024/02/27 07:04:52;;;;;;;25.65;11.35;;;3.80;99.90;;;;;;4972651;28;20038;-78
2024/02/27 07:07:18;;;;;;;25.63;12.63;;;3.90;99.90;;;;;;4977825;28;20037;-78
2024/02/27 07:09:43;;;;;;;25.67;12.52;;;3.90;99.90;;;;;;5006560;28;20510;-78
2024/02/27 07:12:09;;;;;;;25.75;13.13;;;3.90;99.90;;;;;;5004423;28;20022;-78
2024/02/27 07:14:41;;;;;;;24.73;12.05;;;3.90;99.90;;;;;;4997172;28;20045;-78
2024/02/27 07:17:06;;;;;;;23.40;12.45;;;3.90;99.90;;;;;;5005997;28;20030;-78
2024/02/27 07:19:32;;;;;;;27.95;12.57;;;3.90;99.90;;;;;;5008726;28;20046;-78
2024/02/27 07:21:58;;;;;;;26.63;12.63;;;3.90;99.90;;;;;;5011654;28;20037;-78
2024/02/27 07:24:24;;;;;;;24.15;11.82;;;3.90;99.90;;;;;;4990145;28;20028;-78
2024/02/27 07:26:50;;;;;;;24.80;12.27;;;3.90;99.90;;;;;;5003620;28;20030;-78
2024/02/27 07:29:16;;;;;;;24.30;12.10;;;4.00;99.90;;;;;;5004253;28;20025;-79
2024/02/27 07:31:44;;;;;;;25.35;11.98;;;4.00;99.90;;;;;;4977551;28;20020;-78
2024/02/27 07:34:11;;;;;;;25.58;12.88;;;4.00;99.90;;;;;;4974848;28;20109;-78
2024/02/27 07:36:38;;;;;;;26.80;11.82;;;4.00;99.90;;;;;;5001088;28;20518;-78
2024/02/27 07:39:05;;;;;;;23.05;11.80;;;4.00;99.90;;;;;;4998630;28;20087;-78
2024/02/27 07:41:30;;;;;;;27.77;13.40;;;4.00;99.90;;;;;;4975605;28;20044;-78
2024/02/27 07:43:56;;;;;;;25.48;12.02;;;4.10;99.90;;;;;;4994595;28;20503;-77
2024/02/27 07:46:22;;;;;;;23.58;12.10;;;4.10;99.90;;;;;;4982649;28;20031;-78
2024/02/27 07:48:47;;;;;;;22.50;12.55;;;4.10;99.90;;;;;;4980648;28;20049;-78
2024/02/27 07:51:30;;;;;;;26.92;13.63;;;4.10;99.90;;;;;;5011456;28;20487;-78
2024/02/27 07:53:56;;;;;;;22.48;11.73;;;4.10;99.90;;;;;;5001314;28;20034;-78
2024/02/27 07:56:22;;;;;;;27.02;12.15;;;4.20;99.90;;;;;;5002578;28;20104;-78
2024/02/27 07:58:48;;;;;;;21.83;11.23;;;4.20;99.90;;;;;;4999071;28;20101;-78
2024/02/27 08:01:14;;;;;;;23.45;11.82;;;4.30;99.90;;;;;;4998793;28;20025;-78
2024/02/27 08:06:16;;;;;;;22.15;11.88;;;4.30;99.90;;;;;;5215682;23;20056;-77
2024/02/27 08:08:42;;;;;;;20.08;11.73;;;4.40;99.90;;;;;;5006356;28;20234;-76
2024/02/27 08:11:08;;;;;;;23.60;11.52;;;4.40;99.90;;;;;;5005968;28;20014;-76
2024/02/27 08:13:33;;;;;;;21.95;11.65;;;4.50;99.90;;;;;;4989032;28;20037;-76
2024/02/27 08:15:59;;;;;;;23.63;12.45;;;4.50;99.90;;;;;;4988242;28;20439;-77
2024/02/27 08:18:25;;;;;;;21.45;11.48;;;4.60;99.90;;;;;;5009276;28;20029;-76
2024/02/27 08:20:51;;;;;;;23.10;11.02;;;4.60;99.90;;;;;;5007161;28;20022;-76
2024/02/27 08:23:17;;;;;;;20.27;11.18;;;4.70;99.90;;;;;;5006340;28;20104;-76
2024/02/27 08:25:43;;;;;;;21.45;12.43;;;4.80;99.90;;;;;;5003729;28;20018;-76
2024/02/27 08:28:09;;;;;;;20.88;11.68;;;4.90;99.90;;;;;;5006328;28;20030;-76
2024/02/27 08:30:35;;;;;;;21.45;11.43;;;4.90;99.90;;;;;;5000384;28;20034;-76
2024/02/27 08:33:00;;;;;;;23.73;11.00;;;5.00;99.90;;;;;;5006310;28;20033;-77
2024/02/27 08:35:26;;;;;;;21.48;11.30;;;5.10;99.90;;;;;;4988087;28;20030;-76
2024/02/27 08:37:52;;;;;;;18.77;10.80;;;5.10;99.90;;;;;;4998481;28;20027;-76
2024/02/27 08:40:19;;;;;;;19.35;11.48;;;5.20;99.90;;;;;;4996827;28;20022;-77
2024/02/27 08:42:44;;;;;;;21.65;11.77;;;5.20;99.90;;;;;;5004606;28;20010;-76
2024/02/27 08:45:10;;;;;;;19.55;11.82;;;5.30;99.90;;;;;;5004148;28;20109;-76
2024/02/27 08:47:36;;;;;;;22.10;12.23;;;5.40;99.90;;;;;;5007009;28;20029;-77
2024/02/27 08:50:03;;;;;;;20.88;12.90;;;5.40;99.90;;;;;;5008499;28;20438;-76
2024/02/27 08:52:30;;;;;;;19.92;12.18;;;5.40;99.90;;;;;;5004876;28;20040;-76
2024/02/27 08:54:56;;;;;;;20.58;11.63;;;5.50;99.90;;;;;;5003633;28;20033;-76
2024/02/27 08:57:22;;;;;;;21.92;12.27;;;5.50;99.90;;;;;;5004739;28;20032;-77
2024/02/27 08:59:48;;;;;;;21.33;12.38;;;5.50;99.90;;;;;;5003873;28;20093;-77
2024/02/27 09:02:17;;;;;;;19.90;12.40;;;5.60;99.90;;;;;;4987198;28;20056;-76
2024/02/27 09:04:42;;;;;;;20.95;12.98;;;5.70;99.90;;;;;;5004635;28;20032;-76
2024/02/27 09:07:10;;;;;;;20.75;11.88;;;5.80;99.90;;;;;;5006569;28;20026;-76
2024/02/27 09:09:36;;;;;;;22.20;13.45;;;5.80;99.90;;;;;;5005372;28;20164;-76
2024/02/27 09:12:05;;;;;;;20.40;12.15;;;5.80;99.90;;;;;;4988282;28;20026;-77
2024/02/27 09:14:31;;;;;;;20.63;12.60;;;5.80;99.90;;;;;;5005718;28;20060;-77
2024/02/27 09:16:57;;;;;;;23.63;11.93;;;5.80;99.90;;;;;;5008391;28;20049;-76
2024/02/27 09:19:25;;;;;;;20.80;12.68;;;5.80;99.90;;;;;;5010104;28;20026;-77
2024/02/27 09:21:51;;;;;;;21.02;12.23;;;5.80;99.90;;;;;;5008531;28;20026;-77
2024/02/27 09:24:17;;;;;;;21.65;13.27;;;5.70;99.90;;;;;;5009885;28;20028;-77
2024/02/27 09:26:43;;;;;;;20.20;12.43;;;5.80;99.90;;;;;;5009414;28;20018;-76
2024/02/27 09:29:09;;;;;;;20.75;12.70;;;5.80;99.90;;;;;;5009630;28;20029;-77
2024/02/27 09:31:34;;;;;;;20.98;13.38;;;5.80;99.90;;;;;;5008978;28;20106;-77
2024/02/27 09:34:00;;;;;;;19.92;12.60;;;5.80;99.90;;;;;;4991675;28;20400;-77
2024/02/27 09:36:26;;;;;;;21.05;12.65;;;5.80;99.90;;;;;;5009058;28;20038;-77
2024/02/27 09:38:52;;;;;;;20.70;13.20;;;5.80;99.90;;;;;;5009651;28;20048;-76
2024/02/27 09:41:49;;;;;;;24.55;13.75;;;5.80;99.90;;;;;;5009181;28;20018;-77
2024/02/27 09:44:15;;;;;;;20.48;12.93;;;5.90;99.90;;;;;;5009949;28;20026;-77
2024/02/27 09:46:42;;;;;;;18.85;11.38;;;5.90;99.90;;;;;;5012487;28;20029;-77
2024/02/27 09:49:10;;;;;;;22.35;12.75;;;5.90;99.90;;;;;;5009472;28;20028;-77
2024/02/27 09:51:38;;;;;;;20.80;12.68;;;5.90;99.90;;;;;;5009104;28;20176;-77
2024/02/27 09:54:05;;;;;;;20.52;12.65;;;5.90;99.90;;;;;;5009249;28;20022;-77
2024/02/27 09:56:32;;;;;;;19.48;12.40;;;5.90;99.90;;;;;;5008658;28;20029;-77
2024/02/27 09:58:59;;;;;;;21.95;12.65;;;6.00;99.90;;;;;;5009360;28;20100;-77
2024/02/27 10:01:29;;;;;;;22.88;13.05;;;6.00;99.90;;;;;;5008819;28;20254;-77
2024/02/27 10:03:56;;;;;;;19.75;12.18;;;6.00;99.90;;;;;;5009383;28;20033;-77
2024/02/27 10:06:23;;;;;;;23.70;13.13;;;6.00;99.90;;;;;;5008701;28;20046;-77
2024/02/27 10:08:54;;;;;;;20.30;12.95;;;6.10;99.90;;;;;;5008653;28;20037;-77
2024/02/27 10:11:20;;;;;;;20.33;12.38;;;6.10;99.90;;;;;;5008460;28;20026;-77
2024/02/27 10:13:46;;;;;;;21.33;12.90;;;6.20;99.90;;;;;;4991274;28;20018;-77
2024/02/27 10:16:16;;;;;;;17.98;12.02;;;6.20;99.90;;;;;;5008577;28;20183;-77
2024/02/27 10:18:42;;;;;;;19.67;11.73;;;6.20;99.90;;;;;;5008902;28;20493;-77
2024/02/27 10:21:08;;;;;;;17.67;10.98;;;6.20;99.90;;;;;;5008223;28;20151;-77
2024/02/27 10:23:34;;;;;;;18.30;11.85;;;6.30;99.90;;;;;;4990944;28;20085;-78
2024/02/27 10:26:10;;;;;;;19.45;13.13;;;6.30;99.90;;;;;;5008290;28;20053;-77
2024/02/27 10:28:37;;;;;;;18.25;12.65;;;6.30;99.90;;;;;;5008507;28;20041;-77
2024/02/27 10:31:08;;;;;;;18.10;12.63;;;6.30;99.90;;;;;;5007801;28;20117;-77
2024/02/27 10:33:36;;;;;;;18.52;12.40;;;6.40;99.90;;;;;;5008488;28;20557;-76
2024/02/27 10:36:03;;;;;;;18.13;12.35;;;6.50;99.90;;;;;;5008357;28;20383;-77
2024/02/27 10:38:29;;;;;;;17.88;11.93;;;6.50;99.90;;;;;;5008697;28;21014;-77
2024/02/27 10:40:54;;;;;;;21.80;15.30;;;6.50;99.90;;;;;;5010937;28;20098;-77
2024/02/27 10:43:20;;;;;;;19.30;13.60;;;6.50;99.90;;;;;;5008859;28;20038;-77
2024/02/27 10:45:49;;;;;;;21.17;14.38;;;6.50;99.90;;;;;;5008041;28;20109;-77
2024/02/27 10:48:18;;;;;;;21.25;13.93;;;6.50;99.90;;;;;;5008134;28;20120;-77
2024/02/27 10:50:44;;;;;;;22.10;13.95;;;6.50;99.90;;;;;;5007691;28;20026;-76
2024/02/27 10:53:10;;;;;;;22.23;14.38;;;6.60;99.90;;;;;;5008144;28;20120;-77
2024/02/27 10:55:39;;;;;;;22.23;13.85;;;6.60;99.90;;;;;;5007280;28;20482;-76
2024/02/27 10:58:08;;;;;;;22.42;14.57;;;6.70;99.90;;;;;;4989353;28;20037;-77
2024/02/27 11:00:34;;;;;;;17.65;12.77;;;6.70;99.90;;;;;;5007488;28;20479;-77
2024/02/27 11:03:05;;;;;;;22.55;14.18;;;6.80;99.90;;;;;;5003672;28;20041;-77
2024/02/27 11:05:32;;;;;;;22.95;14.20;;;6.80;99.90;;;;;;5007396;28;20084;-76
2024/02/27 11:07:58;;;;;;;21.58;14.15;;;6.80;99.90;;;;;;4989912;28;20084;-76
2024/02/27 11:10:29;;;;;;;24.33;14.93;;;6.90;99.90;;;;;;5010934;28;20065;-76
2024/02/27 11:12:55;;;;;;;20.95;14.18;;;7.00;99.90;;;;;;4989656;28;20136;-76
2024/02/27 11:15:22;;;;;;;21.63;14.00;;;7.10;99.90;;;;;;5007458;28;20022;-76
2024/02/27 11:18:10;;;;;;;20.60;14.00;;;7.10;99.90;;;;;;5007556;28;20026;-77
2024/02/27 11:20:36;;;;;;;22.35;14.65;;;7.20;99.90;;;;;;4993400;28;20145;-76
2024/02/27 11:23:03;;;;;;;19.77;14.00;;;7.20;99.90;;;;;;4989528;28;20018;-76
2024/02/27 11:25:29;;;;;;;19.80;13.15;;;7.20;99.90;;;;;;5007221;28;20054;-77
2024/02/27 11:27:57;;;;;;;17.08;12.02;;;7.30;99.90;;;;;;4989248;28;20153;-77
2024/02/27 11:30:24;;;;;;;19.50;13.15;;;7.40;99.90;;;;;;5000738;28;20196;-78
2024/02/27 11:32:50;;;;;;;16.42;11.65;;;7.40;99.90;;;;;;5007325;28;20038;-78
2024/02/27 11:35:19;;;;;;;19.38;13.00;;;7.50;99.90;;;;;;4989409;28;20028;-76
2024/02/27 11:37:45;;;;;;;20.48;14.07;;;7.50;99.90;;;;;;5007457;28;20403;-76
2024/02/27 11:40:12;;;;;;;19.33;13.80;;;7.70;99.90;;;;;;4997972;28;20022;-76
2024/02/27 11:42:42;;;;;;;21.60;14.27;;;7.80;99.90;;;;;;5006258;28;20471;-76
2024/02/27 11:45:13;;;;;;;17.67;13.65;;;7.80;99.90;;;;;;4998795;28;20072;-76
2024/02/27 11:47:48;;;;;;;19.48;13.70;;;7.90;99.90;;;;;;5006357;28;20038;-76
2024/02/27 11:50:36;;;;;;;20.83;13.82;;;7.90;99.90;;;;;;5005865;28;20109;-77
2024/02/27 11:53:20;;;;;;;22.40;13.60;;;7.90;99.90;;;;;;4982156;28;20053;-76
2024/02/27 11:55:51;;;;;;;18.40;13.82;;;7.80;99.90;;;;;;4998189;28;20061;-77
2024/02/27 11:58:17;;;;;;;18.38;13.70;;;7.80;99.90;;;;;;4992863;28;20025;-77
2024/02/27 12:00:44;;;;;;;19.48;13.77;;;7.80;99.90;;;;;;4996501;28;20042;-77
2024/02/27 12:03:11;;;;;;;18.92;13.20;;;7.70;99.90;;;;;;5000156;28;20052;-77
2024/02/27 12:05:37;;;;;;;20.13;13.73;;;7.80;99.90;;;;;;5000044;28;20056;-78
2024/02/27 12:08:03;;;;;;;19.90;14.45;;;7.70;99.90;;;;;;5010895;28;20029;-78
2024/02/27 12:10:29;;;;;;;20.20;14.13;;;7.70;99.90;;;;;;5003342;28;20427;-76
2024/02/27 12:12:55;;;;;;;21.80;14.20;;;7.70;99.90;;;;;;5001518;28;20038;-77
2024/02/27 12:15:21;;;;;;;17.77;12.40;;;7.80;99.90;;;;;;5003157;28;20549;-77
2024/02/27 12:17:47;;;;;;;17.70;13.50;;;7.90;99.90;;;;;;5004677;28;20021;-77
2024/02/27 12:20:14;;;;;;;21.15;13.57;;;8.00;99.90;;;;;;5003119;28;20018;-76
2024/02/27 12:22:48;;;;;;;18.67;13.13;;;8.10;99.90;;;;;;5003984;28;20582;-76
2024/02/27 12:25:15;;;;;;;21.80;14.13;;;8.20;99.90;;;;;;4995028;28;20147;-75
2024/02/27 12:27:42;;;;;;;18.25;13.77;;;8.20;99.90;;;;;;5006417;28;20030;-75
2024/02/27 12:30:12;;;;;;;17.75;13.85;;;8.30;99.90;;;;;;5004696;28;20022;-78
2024/02/27 12:32:43;;;;;;;17.98;13.05;;;8.30;99.90;;;;;;4988102;28;20026;-77
2024/02/27 12:35:13;;;;;;;18.38;13.00;;;8.30;99.90;;;;;;4992278;28;20088;-78
2024/02/27 12:37:49;;;;;;;17.67;13.50;;;8.40;99.90;;;;;;5009075;28;20529;-78